Terminal Aerodrome Forecast
Issued by NWS Shreveport, LA

Home | Current Version | Previous Version | Text Only | Print | Product List | Glossary On
Versions: 1 2 3 4 5 6 7 8 9 10 11 12 13 14 15 16 17 18 19 20 21
000
FTUS44 KSHV 061258 AAA
TAFSHV
TAF AMD
KSHV 061258Z 0613/0712 17006KT 6SM BR SCT007 BKN020
      TEMPO 0613/0614 5SM BR BKN008
     FM061400 21008KT P6SM BKN015 BKN035
     FM061600 21011G18KT P6SM BKN035
     FM070000 18007KT P6SM FEW045
     FM071100 18006KT 5SM BR BKN008=

USA.gov is the U.S. government's official web portal to all federal, state and local government web resources and services.